Time;durP1;ratioP1;P1;durP2;ratioP2;P2;SDS_P1;SDS_P2;PMS_P1;PMS_P2;Temp;Humidity;BMP_temperature;BMP_pressure;BME280_temperature;BME280_humidity;BME280_pressure;Samples;Min_cycle;Max_cycle;Signal;HPM_P1;HPM_P2
2021/12/03 00:01:31;;;;;;;3.35;1.10;;;;;;;;;;5026761;28;20036;-84
2021/12/03 00:03:58;;;;;;;3.33;0.80;;;;;;;;;;5019882;28;20118;-86
2021/12/03 00:06:24;;;;;;;2.92;0.90;;;;;;;;;;5019438;28;20072;-85
2021/12/03 00:08:51;;;;;;;4.63;1.00;;;;;;;;;;5006463;28;20033;-84
2021/12/03 00:11:17;;;;;;;4.93;1.08;;;;;;;;;;5015770;28;20041;-87
2021/12/03 00:13:44;;;;;;;2.80;0.43;;;;;;;;;;5027280;28;20095;-85
2021/12/03 00:16:10;;;;;;;3.75;0.85;;;;;;;;;;5019967;28;20059;-86
2021/12/03 00:18:37;;;;;;;4.82;1.00;;;;;;;;;;5017909;28;20596;-85
2021/12/03 00:21:07;;;;;;;5.10;0.90;;;;;;;;;;5037595;28;20613;-86
2021/12/03 00:23:33;;;;;;;4.97;1.00;;;;;;;;;;5004761;28;20249;-85
2021/12/03 00:26:00;;;;;;;7.00;0.95;;;;;;;;;;5011410;28;20509;-86
2021/12/03 00:28:28;;;;;;;5.00;0.80;;;;;;;;;;5024318;28;20593;-86
2021/12/03 00:30:54;;;;;;;3.15;0.68;;;;;;;;;;5020203;28;20127;-85
2021/12/03 00:33:20;;;;;;;6.15;0.80;;;;;;;;;;5021317;28;20508;-85
2021/12/03 00:35:47;;;;;;;9.43;1.20;;;;;;;;;;5014770;28;20043;-85
2021/12/03 00:38:15;;;;;;;5.93;0.70;;;;;;;;;;5004685;28;20417;-85
2021/12/03 00:40:41;;;;;;;2.30;0.60;;;;;;;;;;5041629;28;20074;-85
2021/12/03 00:43:08;;;;;;;2.95;1.30;;;;;;;;;;5020129;28;20087;-86
2021/12/03 00:45:35;;;;;;;2.15;0.60;;;1.80;99.90;;;;;;5036890;28;20037;-84
2021/12/03 00:48:01;;;;;;;1.75;0.43;;;;;;;;;;5017194;28;20132;-85
2021/12/03 00:50:28;;;;;;;3.47;0.85;;;1.80;99.90;;;;;;5020798;28;20754;-85
2021/12/03 00:52:56;;;;;;;2.83;0.45;;;;;;;;;;4996827;28;20052;-85
2021/12/03 00:55:23;;;;;;;2.92;0.45;;;;;;;;;;5011489;28;20076;-85
2021/12/03 00:57:49;;;;;;;1.67;0.45;;;;;;;;;;5024547;28;20048;-85
2021/12/03 01:00:22;;;;;;;4.50;1.20;;;;;;;;;;4997093;28;20041;-85
2021/12/03 01:02:49;;;;;;;7.18;1.00;;;;;;;;;;5025175;28;20045;-85
2021/12/03 01:05:15;;;;;;;5.65;0.80;;;;;;;;;;5027812;28;20047;-85
2021/12/03 01:07:42;;;;;;;2.08;0.60;;;;;;;;;;5020996;28;20040;-86
2021/12/03 01:10:08;;;;;;;3.85;0.60;;;1.80;99.90;;;;;;5017535;28;20143;-86
2021/12/03 01:12:35;;;;;;;4.47;0.70;;;;;;;;;;5020654;28;20872;-85
2021/12/03 01:15:01;;;;;;;8.30;0.63;;;;;;;;;;5043171;28;20081;-87
2021/12/03 01:17:28;;;;;;;9.98;1.00;;;;;;;;;;5006631;28;20412;-86
2021/12/03 01:19:54;;;;;;;7.50;1.08;;;;;;;;;;5007712;28;20112;-85
2021/12/03 01:22:20;;;;;;;9.57;1.33;;;1.90;99.90;;;;;;5015119;28;20528;-84
2021/12/03 01:24:46;;;;;;;8.82;1.40;;;;;;;;;;5043157;28;20047;-84
2021/12/03 01:27:12;;;;;;;7.93;1.83;;;;;;;;;;5013973;28;20064;-85
2021/12/03 01:29:39;;;;;;;3.83;0.93;;;;;;;;;;5005055;28;20077;-86
2021/12/03 01:32:05;;;;;;;5.75;1.00;;;;;;;;;;4997004;28;20772;-86
2021/12/03 01:34:32;;;;;;;5.55;1.63;;;;;;;;;;5002155;28;20043;-86
2021/12/03 01:36:58;;;;;;;4.53;1.42;;;;;;;;;;4995567;28;20171;-86
2021/12/03 01:39:24;;;;;;;1.20;0.38;;;1.00;99.90;;;;;;5002068;28;20056;-86
2021/12/03 01:41:50;;;;;;;5.80;1.20;;;;;;;;;;4987560;28;20069;-87
2021/12/03 01:44:17;;;;;;;8.48;1.48;;;;;;;;;;4991073;28;20098;-84
2021/12/03 01:46:43;;;;;;;7.50;1.25;;;1.90;99.90;;;;;;4987439;28;20041;-85
2021/12/03 01:49:11;;;;;;;2.10;0.80;;;;;;;;;;4988338;28;20133;-85
2021/12/03 01:51:37;;;;;;;6.95;1.10;;;;;;;;;;5000906;28;20069;-86
2021/12/03 01:54:03;;;;;;;5.38;1.15;;;2.00;99.90;;;;;;5001281;28;20046;-85
2021/12/03 01:56:30;;;;;;;12.07;2.83;;;;;;;;;;5002086;28;20049;-86
2021/12/03 01:58:56;;;;;;;11.95;2.13;;;;;;;;;;4982387;28;20077;-86
2021/12/03 02:01:25;;;;;;;16.77;2.85;;;;;;;;;;4996163;28;20050;-82
2021/12/03 02:03:53;;;;;;;8.80;1.85;;;;;;;;;;4983873;28;20133;-86
2021/12/03 02:06:20;;;;;;;9.00;2.63;;;;;;;;;;4988416;28;20581;-85
2021/12/03 02:08:46;;;;;;;13.65;3.42;;;;;;;;;;5023932;28;20050;-85
2021/12/03 02:11:13;;;;;;;8.00;1.40;;;;;;;;;;5005772;28;20048;-86
2021/12/03 02:13:40;;;;;;;8.88;2.45;;;2.20;99.90;;;;;;5008234;28;20038;-86
2021/12/03 02:16:06;;;;;;;13.18;3.38;;;;;;;;;;5006219;28;20104;-85
2021/12/03 02:18:33;;;;;;;10.07;1.80;;;2.30;99.90;;;;;;5006958;28;20081;-85
2021/12/03 02:21:00;;;;;;;4.80;0.85;;;;;;;;;;4991595;28;20298;-85
2021/12/03 02:23:28;;;;;;;8.90;1.77;;;;;;;;;;5001063;28;20077;-86
2021/12/03 02:25:55;;;;;;;4.35;0.75;;;;;;;;;;4998770;28;20518;-85
2021/12/03 02:28:23;;;;;;;11.20;2.50;;;;;;;;;;5016839;28;20450;-81
2021/12/03 02:30:49;;;;;;;4.93;1.50;;;2.10;99.90;;;;;;5024076;28;20490;-86
2021/12/03 02:33:16;;;;;;;8.32;1.50;;;;;;;;;;5008739;28;20049;-85
2021/12/03 02:35:44;;;;;;;7.53;1.10;;;;;;;;;;5008502;28;20076;-88
2021/12/03 02:38:12;;;;;;;3.60;0.63;;;;;;;;;;5024526;28;20392;-88
2021/12/03 02:40:39;;;;;;;8.88;0.70;;;;;;;;;;5027252;28;20056;-87
2021/12/03 02:43:05;;;;;;;3.53;0.68;;;;;;;;;;5022229;28;20502;-88
2021/12/03 02:45:31;;;;;;;7.20;0.75;;;;;;;;;;5025265;28;20457;-88
2021/12/03 02:48:01;;;;;;;6.10;1.13;;;;;;;;;;5015513;28;20120;-84
2021/12/03 02:50:27;;;;;;;5.18;0.65;;;;;;;;;;5012075;28;20040;-89
2021/12/03 02:52:54;;;;;;;5.70;1.67;;;;;;;;;;5007339;28;20552;-89
2021/12/03 02:55:20;;;;;;;4.25;0.40;;;;;;;;;;5010195;28;20108;-85
2021/12/03 02:57:46;;;;;;;5.93;0.65;;;;;;;;;;4995506;28;20053;-87
2021/12/03 03:00:15;;;;;;;1.38;0.38;;;;;;;;;;5024754;28;20557;-85
2021/12/03 03:02:42;;;;;;;2.45;0.60;;;;;;;;;;5024597;28;20507;-88
2021/12/03 03:05:09;;;;;;;2.90;0.35;;;;;;;;;;5007264;28;20567;-89
2021/12/03 03:07:35;;;;;;;0.25;0.10;;;;;;;;;;5007780;28;20061;-88
2021/12/03 03:10:03;;;;;;;3.17;0.70;;;;;;;;;;5007927;28;20080;-89
2021/12/03 03:12:29;;;;;;;0.90;0.35;;;;;;;;;;5022649;28;20051;-89
2021/12/03 03:14:57;;;;;;;3.83;0.82;;;;;;;;;;5013037;28;20448;-89
2021/12/03 03:17:24;;;;;;;0.55;0.30;;;;;;;;;;5018627;28;20067;-88
2021/12/03 03:19:51;;;;;;;7.88;0.95;;;;;;;;;;5024958;28;20470;-89
2021/12/03 03:22:17;;;;;;;6.13;0.50;;;;;;;;;;5025495;28;20073;-87
2021/12/03 03:24:43;;;;;;;1.17;0.65;;;1.90;99.90;;;;;;5010017;28;20052;-87
2021/12/03 03:27:10;;;;;;;5.07;0.60;;;;;;;;;;5006954;28;20502;-87
2021/12/03 03:29:37;;;;;;;2.38;0.50;;;;;;;;;;5023586;28;20029;-88
2021/12/03 03:32:03;;;;;;;3.30;1.13;;;;;;;;;;5021374;28;20082;-86
2021/12/03 03:34:29;;;;;;;0.52;0.40;;;;;;;;;;5015986;28;20794;-86
2021/12/03 03:36:56;;;;;;;1.83;0.43;;;;;;;;;;5024847;28;20052;-87
2021/12/03 03:39:22;;;;;;;3.28;0.65;;;;;;;;;;5030475;28;20045;-86
2021/12/03 03:41:49;;;;;;;2.13;0.47;;;;;;;;;;5025106;28;20118;-87
2021/12/03 03:44:16;;;;;;;1.77;0.73;;;;;;;;;;5010863;28;20041;-87
2021/12/03 03:46:43;;;;;;;2.78;0.77;;;;;;;;;;5025266;28;20045;-87
2021/12/03 03:49:09;;;;;;;6.38;0.60;;;;;;;;;;5018583;28;20470;-88
2021/12/03 03:51:35;;;;;;;3.00;0.57;;;;;;;;;;5022674;28;20079;-88
2021/12/03 03:54:02;;;;;;;7.18;1.00;;;;;;;;;;5015495;28;20052;-84
2021/12/03 03:56:28;;;;;;;2.05;0.55;;;;;;;;;;5016257;28;20044;-88
2021/12/03 03:58:55;;;;;;;0.95;0.40;;;2.60;99.90;;;;;;5022984;28;20514;-86
2021/12/03 04:01:21;;;;;;;1.30;0.30;;;2.60;99.90;;;;;;5020081;28;20048;-86
2021/12/03 04:03:47;;;;;;;3.92;0.60;;;;;;;;;;5006738;28;20076;-87
2021/12/03 04:06:17;;;;;;;3.05;0.60;;;;;;;;;;5016172;28;20107;-87
2021/12/03 04:08:45;;;;;;;1.60;0.43;;;;;;;;;;5017811;28;20128;-86
2021/12/03 04:11:11;;;;;;;2.28;0.32;;;;;;;;;;5017637;28;20046;-88
2021/12/03 04:13:38;;;;;;;0.90;0.30;;;;;;;;;;5023462;28;20083;-86
2021/12/03 04:16:04;;;;;;;1.23;0.60;;;2.80;99.90;;;;;;5017419;28;20136;-86
2021/12/03 04:18:31;;;;;;;5.30;0.75;;;2.50;99.90;;;;;;5022161;28;20120;-87
2021/12/03 04:20:57;;;;;;;5.63;0.73;;;;;;;;;;5025366;28;20041;-86
2021/12/03 04:23:23;;;;;;;2.72;0.73;;;;;;;;;;5022521;28;20068;-85
2021/12/03 04:25:50;;;;;;;0.88;0.45;;;;;;;;;;5024018;28;20125;-86
2021/12/03 04:28:18;;;;;;;2.92;0.50;;;;;;;;;;5023261;28;20057;-84
2021/12/03 04:30:44;;;;;;;1.85;0.55;;;;;;;;;;5008232;28;20056;-85
2021/12/03 04:33:11;;;;;;;5.22;0.68;;;;;;;;;;5022284;28;20033;-86
2021/12/03 04:35:37;;;;;;;2.90;0.60;;;;;;;;;;5006225;28;20076;-83
2021/12/03 04:38:04;;;;;;;3.13;1.23;;;;;;;;;;5023593;28;20045;-86
2021/12/03 04:40:30;;;;;;;7.10;1.08;;;;;;;;;;5024925;28;20041;-85
2021/12/03 04:42:57;;;;;;;1.65;0.90;;;;;;;;;;5005091;28;20044;-85
2021/12/03 04:45:24;;;;;;;4.13;1.20;;;;;;;;;;5015659;28;20048;-85
2021/12/03 04:47:51;;;;;;;4.50;1.35;;;;;;;;;;5024816;28;20048;-86
2021/12/03 04:50:18;;;;;;;13.70;1.67;;;;;;;;;;5026030;28;20037;-86
2021/12/03 04:52:44;;;;;;;3.67;1.15;;;2.80;99.90;;;;;;5017232;28;20041;-86
2021/12/03 04:55:11;;;;;;;6.28;1.85;;;;;;;;;;5023677;28;20154;-85
2021/12/03 04:57:38;;;;;;;3.13;1.45;;;;;;;;;;5007588;28;20542;-86
2021/12/03 05:00:06;;;;;;;5.38;1.80;;;;;;;;;;5022607;28;20064;-86
2021/12/03 05:02:32;;;;;;;4.68;1.13;;;;;;;;;;5018436;28;20045;-85
2021/12/03 05:05:02;;;;;;;5.50;1.33;;;;;;;;;;5005181;28;20056;-84
2021/12/03 05:09:54;;;;;;;5.35;1.45;;;;;;;;;;5017835;28;20583;-86
2021/12/03 05:12:20;;;;;;;6.15;1.15;;;;;;;;;;5026849;28;20069;-86
2021/12/03 05:14:47;;;;;;;10.68;1.63;;;;;;;;;;5020630;28;20037;-86
2021/12/03 05:17:13;;;;;;;4.50;1.05;;;;;;;;;;5006797;28;20037;-86
2021/12/03 05:19:39;;;;;;;2.50;1.38;;;;;;;;;;5004688;28;20045;-86
2021/12/03 05:22:06;;;;;;;9.35;1.50;;;;;;;;;;5017498;28;20413;-86
2021/12/03 05:24:32;;;;;;;3.00;1.00;;;;;;;;;;5018466;28;20457;-85
2021/12/03 05:26:58;;;;;;;4.50;1.47;;;;;;;;;;4969447;28;1538052;-84
2021/12/03 05:29:24;;;;;;;1.13;0.70;;;;;;;;;;5013837;28;20033;-87
2021/12/03 05:31:51;;;;;;;5.03;1.25;;;;;;;;;;5008556;28;20384;-87
2021/12/03 05:34:17;;;;;;;7.25;1.20;;;;;;;;;;5020667;28;20185;-83
2021/12/03 05:36:46;;;;;;;8.38;1.40;;;;;;;;;;5007464;28;20044;-86
2021/12/03 05:39:13;;;;;;;1.77;0.98;;;;;;;;;;5021664;28;20050;-86
2021/12/03 05:41:40;;;;;;;3.33;0.98;;;;;;;;;;5029101;28;20036;-86
2021/12/03 05:44:06;;;;;;;4.28;1.27;;;;;;;;;;5015597;28;20064;-86
2021/12/03 05:46:33;;;;;;;3.40;0.65;;;;;;;;;;4999332;28;20040;-85
2021/12/03 05:48:59;;;;;;;3.75;0.90;;;;;;;;;;5022255;28;20049;-85
2021/12/03 05:51:26;;;;;;;9.05;2.05;;;;;;;;;;5013573;28;20898;-86
2021/12/03 05:53:53;;;;;;;7.22;0.90;;;;;;;;;;5027839;28;20640;-85
2021/12/03 05:56:20;;;;;;;8.68;1.50;;;;;;;;;;5028895;28;20043;-85
2021/12/03 05:58:48;;;;;;;6.93;1.83;;;;;;;;;;5017066;28;20037;-85
2021/12/03 06:01:14;;;;;;;1.17;0.38;;;;;;;;;;5028459;28;20052;-86
2021/12/03 06:03:40;;;;;;;0.70;0.35;;;;;;;;;;5031915;28;20044;-86
2021/12/03 06:06:07;;;;;;;3.88;0.70;;;;;;;;;;5013882;28;20540;-86
2021/12/03 06:08:33;;;;;;;3.97;0.80;;;;;;;;;;5029943;28;20130;-87
2021/12/03 06:10:59;;;;;;;1.35;0.60;;;;;;;;;;5028920;28;20091;-86
2021/12/03 06:13:25;;;;;;;4.13;1.08;;;;;;;;;;5031093;28;20037;-87
2021/12/03 06:15:51;;;;;;;3.40;0.77;;;;;;;;;;5014532;28;20490;-87
2021/12/03 06:18:18;;;;;;;2.88;0.60;;;;;;;;;;5025308;28;20168;-89
2021/12/03 06:20:44;;;;;;;2.83;0.82;;;;;;;;;;5028971;28;20926;-89
2021/12/03 06:23:10;;;;;;;3.47;0.82;;;;;;;;;;5030482;28;20083;-89
2021/12/03 06:25:37;;;;;;;2.28;0.47;;;;;;;;;;5017564;28;20496;-88
2021/12/03 06:28:04;;;;;;;2.15;0.85;;;;;;;;;;5031368;28;20061;-89
2021/12/03 06:30:30;;;;;;;2.47;0.65;;;;;;;;;;5024502;28;20318;-88
2021/12/03 06:32:57;;;;;;;8.80;1.40;;;;;;;;;;5029511;28;20503;-88
2021/12/03 06:35:23;;;;;;;4.45;1.30;;;;;;;;;;5012356;28;20072;-88
2021/12/03 06:37:50;;;;;;;2.03;1.08;;;;;;;;;;5028215;28;20041;-88
2021/12/03 06:40:18;;;;;;;2.42;1.10;;;;;;;;;;5008364;28;20042;-87
2021/12/03 06:42:45;;;;;;;3.40;1.30;;;;;;;;;;5012392;28;20419;-86
2021/12/03 06:45:12;;;;;;;3.10;1.13;;;;;;;;;;5030933;28;20044;-87
2021/12/03 06:47:38;;;;;;;2.65;1.08;;;;;;;;;;5024659;28;20120;-87
2021/12/03 06:50:07;;;;;;;3.72;1.08;;;;;;;;;;5027941;28;20776;-88
2021/12/03 06:52:35;;;;;;;7.90;1.20;;;;;;;;;;5008176;28;20041;-87
2021/12/03 06:55:04;;;;;;;4.60;1.13;;;;;;;;;;5027596;28;20064;-85
2021/12/03 06:57:30;;;;;;;2.60;1.40;;;;;;;;;;5025015;28;20403;-88
2021/12/03 06:59:56;;;;;;;5.05;1.52;;;;;;;;;;5022721;28;20045;-88
2021/12/03 07:02:22;;;;;;;6.45;1.52;;;;;;;;;;5011106;28;20178;-88
2021/12/03 07:04:49;;;;;;;7.38;1.77;;;;;;;;;;5005466;28;20099;-88
2021/12/03 07:07:15;;;;;;;4.90;1.33;;;;;;;;;;5024647;28;20079;-86
2021/12/03 07:09:42;;;;;;;15.40;1.70;;;;;;;;;;5020291;28;20038;-87
2021/12/03 07:12:09;;;;;;;6.97;2.17;;;;;;;;;;5035875;28;20717;-87
2021/12/03 07:14:36;;;;;;;6.10;1.83;;;;;;;;;;5023620;28;20422;-86
2021/12/03 07:17:05;;;;;;;3.35;1.73;;;;;;;;;;5006771;28;20050;-85
2021/12/03 07:19:32;;;;;;;3.40;1.92;;;;;;;;;;5023297;28;20041;-86
2021/12/03 07:21:58;;;;;;;7.18;2.08;;;;;;;;;;5022381;28;20055;-87
2021/12/03 07:24:24;;;;;;;14.43;2.85;;;;;;;;;;5014599;28;20041;-89
2021/12/03 07:26:50;;;;;;;7.55;2.90;;;;;;;;;;5023993;28;20041;-88
2021/12/03 07:29:16;;;;;;;4.75;2.13;;;;;;;;;;5014971;28;20061;-86
2021/12/03 07:31:42;;;;;;;8.93;3.33;;;;;;;;;;5023272;28;20434;-88
2021/12/03 07:34:11;;;;;;;9.90;3.63;;;;;;;;;;5026481;28;20041;-88
2021/12/03 07:36:37;;;;;;;7.18;3.03;;;;;;;;;;5036983;28;20036;-88
2021/12/03 07:39:04;;;;;;;12.02;4.75;;;;;;;;;;5024821;28;20056;-89
2021/12/03 07:41:30;;;;;;;7.78;2.65;;;;;;;;;;5011177;28;20048;-87
2021/12/03 07:43:56;;;;;;;11.35;3.25;;;;;;;;;;5009613;28;20052;-88
2021/12/03 07:46:23;;;;;;;7.93;2.33;;;;;;;;;;5019961;28;20033;-87
2021/12/03 07:48:50;;;;;;;8.75;2.47;;;;;;;;;;5003746;28;20112;-86
2021/12/03 07:51:17;;;;;;;7.47;2.92;;;;;;;;;;5017729;28;20629;-84
2021/12/03 07:53:44;;;;;;;5.65;1.92;;;;;;;;;;5004805;28;20033;-88
2021/12/03 07:56:10;;;;;;;4.88;2.58;;;;;;;;;;5020725;28;20044;-86
2021/12/03 07:58:37;;;;;;;6.00;2.65;;;;;;;;;;5007793;28;20038;-83
2021/12/03 08:01:03;;;;;;;4.75;2.55;;;;;;;;;;5017174;28;20045;-83
2021/12/03 08:03:29;;;;;;;6.70;2.20;;;;;;;;;;5020553;28;20459;-83
2021/12/03 08:05:55;;;;;;;8.63;2.13;;;;;;;;;;5024060;28;20041;-84
2021/12/03 08:08:22;;;;;;;5.35;2.35;;;;;;;;;;5005303;28;20037;-83
2021/12/03 08:10:49;;;;;;;8.45;2.35;;;;;;;;;;5003630;28;20050;-84
2021/12/03 08:13:15;;;;;;;7.35;2.25;;;;;;;;;;5008904;28;20102;-84
2021/12/03 08:15:42;;;;;;;2.30;1.48;;;;;;;;;;5008741;28;20045;-84
2021/12/03 08:18:08;;;;;;;8.10;1.67;;;;;;;;;;5012416;28;20102;-84
2021/12/03 08:20:35;;;;;;;5.13;1.33;;;;;;;;;;5029760;28;20401;-85
2021/12/03 08:23:02;;;;;;;5.78;1.42;;;;;;;;;;5024940;28;20060;-84
2021/12/03 08:25:29;;;;;;;2.38;1.10;;;;;;;;;;5016468;28;20037;-84
2021/12/03 08:27:55;;;;;;;3.30;1.13;;;;;;;;;;5013376;28;20049;-83
2021/12/03 08:30:22;;;;;;;5.88;1.08;;;;;;;;;;5020391;28;20034;-85
2021/12/03 08:32:48;;;;;;;5.30;1.00;;;;;;;;;;5009234;28;20172;-83
2021/12/03 08:35:14;;;;;;;6.97;1.42;;;;;;;;;;5008728;28;20073;-84
2021/12/03 08:37:45;;;;;;;5.88;1.15;;;;;;;;;;5032034;28;20045;-84
2021/12/03 08:40:12;;;;;;;3.95;0.98;;;;;;;;;;5023037;28;20141;-84
2021/12/03 08:42:38;;;;;;;6.90;1.17;;;;;;;;;;5024168;28;20047;-85
2021/12/03 08:45:05;;;;;;;11.60;0.93;;;;;;;;;;5037617;28;20636;-84
2021/12/03 08:47:33;;;;;;;7.57;1.58;;;4.40;99.90;;;;;;5025028;28;20040;-84
2021/12/03 08:50:01;;;;;;;10.20;1.60;;;;;;;;;;5021681;28;20041;-85
2021/12/03 08:55:12;;;;;;;5.78;1.13;;;;;;;;;;5016753;28;20053;-84
2021/12/03 08:57:38;;;;;;;8.93;1.48;;;;;;;;;;5020517;28;20049;-83
2021/12/03 09:00:04;;;;;;;4.00;1.33;;;;;;;;;;5020665;28;20057;-84
2021/12/03 09:02:30;;;;;;;3.97;1.15;;;;;;;;;;5003152;28;20041;-84
2021/12/03 09:04:57;;;;;;;7.82;0.95;;;;;;;;;;5027292;28;20041;-84
2021/12/03 09:07:23;;;;;;;6.60;1.00;;;;;;;;;;5009041;28;20047;-85
2021/12/03 09:09:49;;;;;;;4.38;0.98;;;;;;;;;;5025593;28;20099;-84
2021/12/03 09:12:15;;;;;;;9.38;2.20;;;;;;;;;;5029365;28;20083;-85
2021/12/03 09:15:05;;;;;;;11.05;1.90;;;;;;;;;;5009978;28;20116;-85
2021/12/03 09:22:46;;;;;;;4.53;1.08;;;;;;;;;;5019796;28;20107;-85
2021/12/03 09:25:15;;;;;;;6.15;1.42;;;;;;;;;;5013520;28;20046;-86
2021/12/03 09:27:42;;;;;;;5.22;0.80;;;;;;;;;;5023151;28;20115;-86
2021/12/03 09:30:10;;;;;;;6.43;1.13;;;;;;;;;;5017924;28;20034;-85
2021/12/03 09:32:36;;;;;;;4.82;1.15;;;;;;;;;;5019014;28;20045;-85
2021/12/03 09:35:04;;;;;;;4.50;1.55;;;;;;;;;;5023026;28;20048;-82
2021/12/03 09:37:30;;;;;;;5.90;1.42;;;;;;;;;;5021104;28;20048;-85
2021/12/03 09:40:03;;;;;;;5.22;1.15;;;;;;;;;;5023679;28;20052;-85
2021/12/03 09:42:29;;;;;;;10.13;2.08;;;;;;;;;;5007943;28;20049;-84
2021/12/03 09:44:55;;;;;;;7.10;1.70;;;4.90;97.90;;;;;;5017552;28;20076;-84
2021/12/03 09:47:22;;;;;;;4.30;1.63;;;;;;;;;;5020499;28;20041;-85
2021/12/03 09:49:55;;;;;;;7.47;1.67;;;;;;;;;;5017808;28;20037;-85
2021/12/03 09:52:28;;;;;;;6.68;1.48;;;;;;;;;;5008017;28;20052;-84
2021/12/03 09:55:10;;;;;;;15.27;2.15;;;;;;;;;;5024881;28;20053;-85
2021/12/03 09:58:03;;;;;;;6.57;1.25;;;;;;;;;;5023673;28;20049;-85
2021/12/03 10:17:22;;;;;;;11.02;2.40;;;;;;;;;;5016210;28;20037;-80
2021/12/03 10:19:34;;;;;;;7.65;2.35;;;;;;;;;;5009202;28;20045;-80
2021/12/03 10:23:11;;;;;;;5.13;1.75;;;;;;;;;;5022991;28;20045;-80
2021/12/03 10:38:50;;;;;;;14.02;3.92;;;;;;;;;;5011094;28;20041;-82
2021/12/03 10:41:27;;;;;;;7.22;2.35;;;;;;;;;;5022911;28;20050;-80
2021/12/03 10:51:53;;;;;;;10.55;2.65;;;;;;;;;;5024744;28;20056;-82
2021/12/03 10:57:38;;;;;;;9.18;3.05;;;;;;;;;;5014448;28;20076;-82
2021/12/03 11:05:44;;;;;;;11.70;3.22;;;;;;;;;;5018556;28;20077;-82
2021/12/03 11:51:26;;;;;;;12.93;5.65;;;;;;;;;;5019024;28;20045;-82
2021/12/03 12:06:16;;;;;;;14.15;5.97;;;;;;;;;;4997345;28;20045;-82
2021/12/03 12:20:06;;;;;;;10.48;5.28;;;;;;;;;;5015224;28;20128;-82
2021/12/03 12:25:52;;;;;;;9.80;5.28;;;;;;;;;;5030613;28;20115;-82
2021/12/03 12:32:24;;;;;;;9.75;5.45;;;;;;;;;;5024546;28;20305;-82
2021/12/03 12:44:48;;;;;;;9.05;5.55;;;;;;;;;;5020366;28;20077;-82
2021/12/03 12:57:24;;;;;;;12.73;6.63;;;;;;;;;;5008675;28;20152;-82
2021/12/03 13:24:26;;;;;;;;;;;;;;;;;;5016007;28;20172;-81
2021/12/03 14:03:19;;;;;;;12.40;8.27;;;;;;;;;;5015497;28;20081;-81
2021/12/03 14:05:17;;;;;;;13.75;7.90;;;;;;;;;;5017557;28;20067;-81
2021/12/03 14:19:32;;;;;;;9.57;6.18;;;;;;;;;;5018220;28;20060;-82
2021/12/03 14:40:37;;;;;;;9.38;8.23;;;;;;;;;;5021275;28;20103;-81
2021/12/03 14:57:19;;;;;;;9.40;7.07;;;;;;;;;;5015095;28;20057;-80
2021/12/03 15:00:32;;;;;;;8.55;7.18;;;;;;;;;;5016100;28;20045;-80
2021/12/03 15:03:19;;;;;;;9.30;8.27;;;4.20;99.90;;;;;;5015607;28;20414;-80
2021/12/03 15:08:18;;;;;;;13.27;8.45;;;;;;;;;;5018034;28;20582;-82
2021/12/03 15:26:56;;;;;;;7.38;6.22;;;;;;;;;;5006472;28;20042;-80
2021/12/03 15:32:09;;;;;;;9.90;8.23;;;;;;;;;;5036155;28;20511;-81
2021/12/03 16:06:41;;;;;;;8.57;6.93;;;4.50;99.90;;;;;;5003978;28;20483;-82
2021/12/03 16:09:18;;;;;;;8.77;7.88;;;;;;;;;;5010525;28;20054;-82
2021/12/03 16:17:19;;;;;;;8.27;7.00;;;;;;;;;;5013798;28;20053;-82
2021/12/03 16:22:35;;;;;;;10.68;7.00;;;;;;;;;;5012866;28;20607;-82
2021/12/03 16:44:45;;;;;;;10.95;9.30;;;;;;;;;;5001882;28;20465;-83
2021/12/03 16:47:04;;;;;;;10.30;9.20;;;;;;;;;;5004485;28;20458;-83
2021/12/03 16:50:50;;;;;;;9.80;8.10;;;4.70;99.90;;;;;;4997886;28;20405;-82
2021/12/03 16:52:30;;;;;;;10.32;9.25;;;;;;;;;;4995187;28;20152;-82
2021/12/03 16:54:58;;;;;;;10.77;8.55;;;;;;;;;;5004870;28;20079;-82
2021/12/03 16:57:30;;;;;;;11.57;9.68;;;;;;;;;;4998604;28;20163;-82
2021/12/03 16:59:59;;;;;;;10.20;8.60;;;;;;;;;;5000023;28;20042;-82
2021/12/03 17:02:35;;;;;;;9.10;8.10;;;;;;;;;;5000593;28;20510;-81
2021/12/03 17:08:25;;;;;;;10.68;8.88;;;;;;;;;;4968054;28;20464;-83
2021/12/03 17:11:22;;;;;;;9.85;7.60;;;;;;;;;;4997578;28;21342;-82
2021/12/03 17:48:47;;;;;;;;;;;;;;;;;;4994500;28;20042;-81
2021/12/03 17:56:45;;;;;;;9.32;7.38;;;4.90;99.90;;;;;;5000120;28;20056;-82
2021/12/03 17:59:18;;;;;;;10.30;8.18;;;5.10;99.90;;;;;;5004119;28;20507;-81
2021/12/03 18:01:50;;;;;;;8.90;6.15;;;;;;;;;;5006319;28;20108;-81
2021/12/03 18:04:24;;;;;;;9.35;6.53;;;;;;;;;;5026435;28;20164;-82
2021/12/03 18:56:07;;;;;;;13.93;10.93;;;;;;;;;;4999856;28;20071;-81
2021/12/03 18:58:33;;;;;;;14.07;10.15;;;;;;;;;;4985827;28;20124;-81
2021/12/03 19:01:00;;;;;;;12.93;10.32;;;;;;;;;;4997547;28;20046;-81
2021/12/03 19:06:19;;;;;;;13.63;9.52;;;;;;;;;;4997324;28;20049;-81
2021/12/03 19:08:52;;;;;;;14.82;10.02;;;;;;;;;;4997682;28;20487;-81
2021/12/03 19:11:34;;;;;;;17.13;12.52;;;;;;;;;;4996848;28;20038;-81
2021/12/03 19:14:01;;;;;;;14.82;10.80;;;;;;;;;;4998350;28;20161;-81
2021/12/03 19:16:27;;;;;;;15.63;11.38;;;;;;;;;;4998768;28;20033;-81
2021/12/03 19:18:55;;;;;;;15.57;11.55;;;;;;;;;;4976507;28;20050;-81
2021/12/03 19:21:24;;;;;;;16.15;10.35;;;;;;;;;;4994025;28;20125;-81
2021/12/03 19:24:00;;;;;;;14.93;11.18;;;;;;;;;;4981472;28;20056;-81
2021/12/03 19:26:27;;;;;;;18.30;11.65;;;;;;;;;;4995728;28;20034;-82
2021/12/03 19:28:54;;;;;;;16.13;11.45;;;;;;;;;;5009660;28;20169;-81
2021/12/03 19:31:22;;;;;;;16.95;12.13;;;;;;;;;;5000307;28;20048;-81
2021/12/03 19:33:48;;;;;;;19.05;13.30;;;;;;;;;;5014171;28;20509;-81
2021/12/03 19:36:23;;;;;;;14.82;10.73;;;;;;;;;;4995212;28;20045;-81
2021/12/03 19:38:50;;;;;;;18.08;13.60;;;;;;;;;;4996580;28;20159;-81
2021/12/03 19:41:29;;;;;;;19.17;11.73;;;;;;;;;;5015230;28;20033;-81
2021/12/03 19:43:57;;;;;;;17.85;13.35;;;5.20;99.90;;;;;;5032351;28;20041;-81
2021/12/03 19:46:45;;;;;;;17.50;12.93;;;;;;;;;;5017840;28;20041;-81
2021/12/03 19:51:46;;;;;;;20.92;15.25;;;;;;;;;;5013176;28;20045;-81
2021/12/03 19:54:12;;;;;;;17.60;12.70;;;;;;;;;;5023007;28;20056;-81
2021/12/03 19:56:40;;;;;;;26.15;15.52;;;;;;;;;;5019846;28;20093;-81
2021/12/03 19:59:06;;;;;;;19.80;14.65;;;;;;;;;;5020347;28;20150;-82
2021/12/03 20:01:34;;;;;;;20.75;14.27;;;;;;;;;;5005849;28;20040;-81
2021/12/03 20:04:00;;;;;;;18.15;12.05;;;;;;;;;;5005684;28;20038;-81
2021/12/03 20:06:26;;;;;;;19.02;13.65;;;;;;;;;;5034359;28;20069;-81
2021/12/03 20:08:56;;;;;;;25.52;17.45;;;;;;;;;;5021128;28;20065;-81
2021/12/03 20:11:27;;;;;;;27.35;18.02;;;;;;;;;;5018451;28;20498;-81
2021/12/03 20:13:59;;;;;;;21.25;14.95;;;;;;;;;;5006404;28;20059;-81
2021/12/03 20:16:30;;;;;;;24.05;18.10;;;;;;;;;;5001855;28;20049;-81
2021/12/03 20:19:05;;;;;;;32.58;21.90;;;;;;;;;;5016394;28;20123;-81
2021/12/03 20:21:32;;;;;;;27.90;19.02;;;;;;;;;;5005475;28;20524;-81
2021/12/03 20:24:22;;;;;;;29.73;22.08;;;;;;;;;;5028371;28;20050;-80
2021/12/03 20:27:00;;;;;;;30.00;19.23;;;;;;;;;;5020870;28;20545;-80
2021/12/03 20:29:37;;;;;;;28.42;19.52;;;;;;;;;;5003107;28;20061;-80
2021/12/03 20:32:19;;;;;;;28.77;20.33;;;;;;;;;;4983045;28;20610;-80
2021/12/03 20:37:22;;;;;;;33.30;21.30;;;;;;;;;;4996174;28;20503;-80
2021/12/03 20:39:50;;;;;;;25.77;17.52;;;;;;;;;;4996687;28;20045;-79
2021/12/03 20:50:45;;;;;;;31.75;20.90;;;;;;;;;;5030887;28;20133;-80
2021/12/03 21:09:14;;;;;;;35.88;23.02;;;;;;;;;;4995592;28;20325;-77
2021/12/03 21:11:50;;;;;;;40.83;24.15;;;;;;;;;;5026952;28;20574;-79
2021/12/03 21:14:20;;;;;;;34.47;21.83;;;5.10;99.90;;;;;;5026292;28;21531;-80
2021/12/03 21:19:34;;;;;;;35.95;22.85;;;;;;;;;;4990158;28;20398;-80
2021/12/03 21:22:04;;;;;;;28.05;17.88;;;;;;;;;;4979184;28;20045;-80
2021/12/03 21:24:38;;;;;;;33.55;21.33;;;5.10;99.90;;;;;;4995642;28;20042;-79
2021/12/03 21:27:12;;;;;;;30.77;20.08;;;;;;;;;;5033881;28;20046;-80
2021/12/03 21:38:06;;;;;;;31.60;20.20;;;;;;;;;;5019928;28;20514;-80
2021/12/03 21:43:18;;;;;;;31.98;19.65;;;3.80;99.90;;;;;;5013606;28;20404;-80
2021/12/03 21:45:44;;;;;;;31.40;20.40;;;;;;;;;;5016211;28;20380;-79
2021/12/03 21:48:10;;;;;;;32.95;19.92;;;;;;;;;;5011752;28;20048;-79
2021/12/03 21:50:37;;;;;;;36.85;21.05;;;;;;;;;;5010200;28;20048;-78
2021/12/03 21:53:04;;;;;;;33.67;19.17;;;;;;;;;;5020282;28;20438;-79
2021/12/03 21:55:34;;;;;;;28.63;18.55;;;;;;;;;;5019361;28;20057;-79
2021/12/03 21:58:00;;;;;;;27.90;17.73;;;;;;;;;;4999130;28;20045;-79
2021/12/03 22:00:27;;;;;;;28.73;16.65;;;;;;;;;;5020799;28;20132;-78
2021/12/03 22:02:53;;;;;;;30.08;18.55;;;;;;;;;;5004648;28;20041;-79
2021/12/03 22:05:19;;;;;;;37.63;20.10;;;;;;;;;;5007232;28;20038;-78
2021/12/03 22:07:45;;;;;;;32.72;18.63;;;;;;;;;;5018112;28;20046;-78
2021/12/03 22:10:12;;;;;;;34.47;19.02;;;;;;;;;;5020440;28;20053;-79
2021/12/03 22:12:38;;;;;;;31.33;17.40;;;;;;;;;;5021310;28;20073;-78
2021/12/03 22:15:05;;;;;;;33.92;20.25;;;;;;;;;;5020203;28;20164;-78
2021/12/03 22:17:31;;;;;;;31.77;17.20;;;;;;;;;;5010583;28;20692;-78
2021/12/03 22:19:58;;;;;;;32.03;18.15;;;;;;;;;;5034446;28;20046;-78
2021/12/03 22:22:24;;;;;;;28.85;17.63;;;;;;;;;;5040539;28;20102;-78
2021/12/03 22:24:51;;;;;;;32.78;19.98;;;;;;;;;;5022492;28;20044;-78
2021/12/03 22:27:18;;;;;;;32.05;19.50;;;5.40;99.90;;;;;;5017398;28;20048;-78
2021/12/03 22:29:45;;;;;;;33.95;20.08;;;;;;;;;;5023577;28;20498;-78
2021/12/03 22:32:12;;;;;;;31.48;19.50;;;;;;;;;;5021734;28;20048;-78